sensor_id;sensor_type;location;lat;lon;timestamp;temperature;humidity
10300;DHT22;5195;48.562;9.192;2023-06-14T00:00:09;19.50;30.20
10300;DHT22;5195;48.562;9.192;2023-06-14T00:02:35;19.90;30.00
10300;DHT22;5195;48.562;9.192;2023-06-14T00:05:00;19.80;29.70
10300;DHT22;5195;48.562;9.192;2023-06-14T00:07:41;19.40;29.60
10300;DHT22;5195;48.562;9.192;2023-06-14T00:10:09;19.30;29.60
10300;DHT22;5195;48.562;9.192;2023-06-14T00:12:34;19.60;29.40
10300;DHT22;5195;48.562;9.192;2023-06-14T00:15:00;19.60;29.40
10300;DHT22;5195;48.562;9.192;2023-06-14T00:17:25;19.40;29.60
10300;DHT22;5195;48.562;9.192;2023-06-14T00:19:51;19.60;30.00
10300;DHT22;5195;48.562;9.192;2023-06-14T00:22:16;20.00;29.30
10300;DHT22;5195;48.562;9.192;2023-06-14T00:24:42;20.20;29.20
10300;DHT22;5195;48.562;9.192;2023-06-14T00:27:08;20.30;29.20
10300;DHT22;5195;48.562;9.192;2023-06-14T00:29:34;19.60;29.10
10300;DHT22;5195;48.562;9.192;2023-06-14T00:32:00;19.60;29.10
10300;DHT22;5195;48.562;9.192;2023-06-14T00:34:25;19.30;29.40
10300;DHT22;5195;48.562;9.192;2023-06-14T00:36:51;19.10;29.70
10300;DHT22;5195;48.562;9.192;2023-06-14T00:39:17;19.30;29.90
10300;DHT22;5195;48.562;9.192;2023-06-14T00:41:42;19.60;29.50
10300;DHT22;5195;48.562;9.192;2023-06-14T00:44:08;19.50;29.60
10300;DHT22;5195;48.562;9.192;2023-06-14T00:46:33;19.20;29.90
10300;DHT22;5195;48.562;9.192;2023-06-14T00:48:59;19.00;30.30
10300;DHT22;5195;48.562;9.192;2023-06-14T00:51:24;18.80;30.70
10300;DHT22;5195;48.562;9.192;2023-06-14T00:53:50;19.00;31.70
10300;DHT22;5195;48.562;9.192;2023-06-14T00:56:15;19.00;31.40
10300;DHT22;5195;48.562;9.192;2023-06-14T00:58:41;18.80;31.60
10300;DHT22;5195;48.562;9.192;2023-06-14T01:01:07;18.60;31.80
10300;DHT22;5195;48.562;9.192;2023-06-14T01:03:32;18.40;32.30
10300;DHT22;5195;48.562;9.192;2023-06-14T01:08:43;18.50;34.10
10300;DHT22;5195;48.562;9.192;2023-06-14T01:11:07;18.90;33.60
10300;DHT22;5195;48.562;9.192;2023-06-14T01:13:39;19.20;33.00
10300;DHT22;5195;48.562;9.192;2023-06-14T01:16:01;19.50;32.40
10300;DHT22;5195;48.562;9.192;2023-06-14T01:18:28;19.50;32.40
10300;DHT22;5195;48.562;9.192;2023-06-14T01:20:53;19.30;32.50
10300;DHT22;5195;48.562;9.192;2023-06-14T01:23:19;18.80;32.60
10300;DHT22;5195;48.562;9.192;2023-06-14T01:25:45;18.80;32.90
10300;DHT22;5195;48.562;9.192;2023-06-14T01:28:11;18.70;32.80
10300;DHT22;5195;48.562;9.192;2023-06-14T01:30:38;18.60;33.50
10300;DHT22;5195;48.562;9.192;2023-06-14T01:33:02;18.60;33.50
10300;DHT22;5195;48.562;9.192;2023-06-14T01:35:29;18.40;33.20
10300;DHT22;5195;48.562;9.192;2023-06-14T01:37:55;18.20;33.40
10300;DHT22;5195;48.562;9.192;2023-06-14T01:40:23;18.30;33.80
10300;DHT22;5195;48.562;9.192;2023-06-14T01:42:49;18.20;33.60
10300;DHT22;5195;48.562;9.192;2023-06-14T01:45:15;18.30;33.50
10300;DHT22;5195;48.562;9.192;2023-06-14T01:47:40;18.20;33.40
10300;DHT22;5195;48.562;9.192;2023-06-14T01:50:07;18.10;33.90
10300;DHT22;5195;48.562;9.192;2023-06-14T01:52:32;18.10;33.90
10300;DHT22;5195;48.562;9.192;2023-06-14T01:54:58;18.00;33.60
10300;DHT22;5195;48.562;9.192;2023-06-14T01:57:24;18.10;33.70
10300;DHT22;5195;48.562;9.192;2023-06-14T01:59:50;18.00;33.60
10300;DHT22;5195;48.562;9.192;2023-06-14T02:02:16;17.60;34.10
10300;DHT22;5195;48.562;9.192;2023-06-14T02:04:42;17.50;34.00
10300;DHT22;5195;48.562;9.192;2023-06-14T02:07:07;17.40;34.40
10300;DHT22;5195;48.562;9.192;2023-06-14T02:09:35;17.70;34.50
10300;DHT22;5195;48.562;9.192;2023-06-14T02:12:01;17.70;34.20
10300;DHT22;5195;48.562;9.192;2023-06-14T02:14:27;17.50;34.20
10300;DHT22;5195;48.562;9.192;2023-06-14T02:16:52;17.30;34.20
10300;DHT22;5195;48.562;9.192;2023-06-14T02:19:18;17.10;34.30
10300;DHT22;5195;48.562;9.192;2023-06-14T02:21:44;17.40;34.30
10300;DHT22;5195;48.562;9.192;2023-06-14T02:24:10;17.40;34.30
10300;DHT22;5195;48.562;9.192;2023-06-14T02:26:36;17.50;35.00
10300;DHT22;5195;48.562;9.192;2023-06-14T02:29:01;17.50;35.00
10300;DHT22;5195;48.562;9.192;2023-06-14T02:31:28;18.20;33.90
10300;DHT22;5195;48.562;9.192;2023-06-14T02:33:53;18.10;33.80
10300;DHT22;5195;48.562;9.192;2023-06-14T02:36:19;18.00;33.80
10300;DHT22;5195;48.562;9.192;2023-06-14T02:38:45;17.60;34.10
10300;DHT22;5195;48.562;9.192;2023-06-14T02:41:11;18.00;34.10
10300;DHT22;5195;48.562;9.192;2023-06-14T02:43:36;18.00;34.10
10300;DHT22;5195;48.562;9.192;2023-06-14T02:46:02;18.30;33.80
10300;DHT22;5195;48.562;9.192;2023-06-14T02:48:28;18.40;33.50
10300;DHT22;5195;48.562;9.192;2023-06-14T02:50:54;17.70;34.60
10300;DHT22;5195;48.562;9.192;2023-06-14T02:53:19;17.70;34.00
10300;DHT22;5195;48.562;9.192;2023-06-14T02:55:45;17.80;34.40
10300;DHT22;5195;48.562;9.192;2023-06-14T02:58:11;18.00;34.20
10300;DHT22;5195;48.562;9.192;2023-06-14T03:00:38;18.20;34.30
10300;DHT22;5195;48.562;9.192;2023-06-14T03:03:03;18.00;34.30
10300;DHT22;5195;48.562;9.192;2023-06-14T03:05:29;18.00;34.70
10300;DHT22;5195;48.562;9.192;2023-06-14T03:07:54;18.30;34.50
10300;DHT22;5195;48.562;9.192;2023-06-14T03:10:20;18.10;34.20
10300;DHT22;5195;48.562;9.192;2023-06-14T03:12:45;18.10;34.20
10300;DHT22;5195;48.562;9.192;2023-06-14T03:15:12;17.50;34.90
10300;DHT22;5195;48.562;9.192;2023-06-14T03:17:37;17.50;34.50
10300;DHT22;5195;48.562;9.192;2023-06-14T03:20:03;17.60;34.90
10300;DHT22;5195;48.562;9.192;2023-06-14T03:22:28;17.90;34.40
10300;DHT22;5195;48.562;9.192;2023-06-14T03:24:54;18.10;34.20
10300;DHT22;5195;48.562;9.192;2023-06-14T03:27:20;18.20;34.00
10300;DHT22;5195;48.562;9.192;2023-06-14T03:29:45;18.30;34.30
10300;DHT22;5195;48.562;9.192;2023-06-14T03:32:11;18.40;34.30
10300;DHT22;5195;48.562;9.192;2023-06-14T03:34:36;18.10;34.60
10300;DHT22;5195;48.562;9.192;2023-06-14T03:37:02;17.70;35.00
10300;DHT22;5195;48.562;9.192;2023-06-14T03:39:29;17.70;35.40
10300;DHT22;5195;48.562;9.192;2023-06-14T03:41:54;18.00;35.10
10300;DHT22;5195;48.562;9.192;2023-06-14T03:44:20;17.70;34.90
10300;DHT22;5195;48.562;9.192;2023-06-14T03:46:46;17.40;35.30
10300;DHT22;5195;48.562;9.192;2023-06-14T03:49:12;17.40;35.30
10300;DHT22;5195;48.562;9.192;2023-06-14T03:51:38;17.30;35.30
10300;DHT22;5195;48.562;9.192;2023-06-14T03:54:04;17.00;35.60
10300;DHT22;5195;48.562;9.192;2023-06-14T03:56:29;16.80;35.90
10300;DHT22;5195;48.562;9.192;2023-06-14T03:58:55;17.00;36.50
10300;DHT22;5195;48.562;9.192;2023-06-14T04:01:21;17.10;36.30
10300;DHT22;5195;48.562;9.192;2023-06-14T04:03:46;17.30;36.40
10300;DHT22;5195;48.562;9.192;2023-06-14T04:06:13;17.30;36.30
10300;DHT22;5195;48.562;9.192;2023-06-14T04:08:40;17.20;36.60
10300;DHT22;5195;48.562;9.192;2023-06-14T04:11:05;16.90;36.60
10300;DHT22;5195;48.562;9.192;2023-06-14T04:13:32;17.10;37.30
10300;DHT22;5195;48.562;9.192;2023-06-14T04:15:58;17.10;37.30
10300;DHT22;5195;48.562;9.192;2023-06-14T04:18:25;17.10;37.00
10300;DHT22;5195;48.562;9.192;2023-06-14T04:20:50;17.30;37.50
10300;DHT22;5195;48.562;9.192;2023-06-14T04:23:16;17.20;37.20
10300;DHT22;5195;48.562;9.192;2023-06-14T04:25:41;17.30;37.50
10300;DHT22;5195;48.562;9.192;2023-06-14T04:28:07;17.70;37.10
10300;DHT22;5195;48.562;9.192;2023-06-14T04:30:33;17.60;36.90
10300;DHT22;5195;48.562;9.192;2023-06-14T04:33:00;17.10;37.20
10300;DHT22;5195;48.562;9.192;2023-06-14T04:35:26;17.10;37.20
10300;DHT22;5195;48.562;9.192;2023-06-14T04:37:53;17.30;36.80
10300;DHT22;5195;48.562;9.192;2023-06-14T04:40:19;17.30;36.80
10300;DHT22;5195;48.562;9.192;2023-06-14T04:42:45;17.20;36.90
10300;DHT22;5195;48.562;9.192;2023-06-14T04:45:10;17.40;37.00
10300;DHT22;5195;48.562;9.192;2023-06-14T04:47:36;17.80;36.60
10300;DHT22;5195;48.562;9.192;2023-06-14T04:50:01;17.80;36.90
10300;DHT22;5195;48.562;9.192;2023-06-14T04:52:28;18.10;37.10
10300;DHT22;5195;48.562;9.192;2023-06-14T04:54:53;18.10;37.10
10300;DHT22;5195;48.562;9.192;2023-06-14T04:57:22;18.20;36.40
10300;DHT22;5195;48.562;9.192;2023-06-14T04:59:48;18.30;36.30
10300;DHT22;5195;48.562;9.192;2023-06-14T05:02:13;18.00;36.40
10300;DHT22;5195;48.562;9.192;2023-06-14T05:04:38;17.60;36.90
10300;DHT22;5195;48.562;9.192;2023-06-14T05:07:04;17.30;37.50
10300;DHT22;5195;48.562;9.192;2023-06-14T05:09:33;17.40;38.20
10300;DHT22;5195;48.562;9.192;2023-06-14T05:11:59;17.60;37.30
10300;DHT22;5195;48.562;9.192;2023-06-14T05:14:25;17.60;37.30
10300;DHT22;5195;48.562;9.192;2023-06-14T05:16:50;17.40;37.60
10300;DHT22;5195;48.562;9.192;2023-06-14T05:19:16;17.30;37.90
10300;DHT22;5195;48.562;9.192;2023-06-14T05:21:43;17.90;37.10
10300;DHT22;5195;48.562;9.192;2023-06-14T05:24:09;17.90;37.10
10300;DHT22;5195;48.562;9.192;2023-06-14T05:26:35;18.20;37.10
10300;DHT22;5195;48.562;9.192;2023-06-14T05:29:01;18.20;37.10
10300;DHT22;5195;48.562;9.192;2023-06-14T05:31:27;18.30;37.60
10300;DHT22;5195;48.562;9.192;2023-06-14T05:33:53;18.80;37.60
10300;DHT22;5195;48.562;9.192;2023-06-14T05:36:19;18.80;37.60
10300;DHT22;5195;48.562;9.192;2023-06-14T05:38:45;18.50;38.10
10300;DHT22;5195;48.562;9.192;2023-06-14T05:41:10;18.50;38.10
10300;DHT22;5195;48.562;9.192;2023-06-14T05:43:36;18.90;37.60
10300;DHT22;5195;48.562;9.192;2023-06-14T05:46:01;19.40;36.80
10300;DHT22;5195;48.562;9.192;2023-06-14T05:48:27;19.80;37.10
10300;DHT22;5195;48.562;9.192;2023-06-14T05:50:53;20.10;36.40
10300;DHT22;5195;48.562;9.192;2023-06-14T05:53:19;20.10;36.00
10300;DHT22;5195;48.562;9.192;2023-06-14T05:55:44;20.20;35.80
10300;DHT22;5195;48.562;9.192;2023-06-14T05:58:11;20.20;35.90
10300;DHT22;5195;48.562;9.192;2023-06-14T06:00:37;20.10;36.20
10300;DHT22;5195;48.562;9.192;2023-06-14T06:03:04;20.80;35.50
10300;DHT22;5195;48.562;9.192;2023-06-14T06:05:30;20.80;35.50
10300;DHT22;5195;48.562;9.192;2023-06-14T06:07:55;20.80;35.60
10300;DHT22;5195;48.562;9.192;2023-06-14T06:10:21;21.10;35.40
10300;DHT22;5195;48.562;9.192;2023-06-14T06:12:47;21.90;34.90
10300;DHT22;5195;48.562;9.192;2023-06-14T06:15:12;22.80;34.10
10300;DHT22;5195;48.562;9.192;2023-06-14T06:17:38;23.70;33.30
10300;DHT22;5195;48.562;9.192;2023-06-14T06:20:04;24.30;33.60
10300;DHT22;5195;48.562;9.192;2023-06-14T06:22:29;24.80;31.90
10300;DHT22;5195;48.562;9.192;2023-06-14T06:24:55;25.20;32.20
10300;DHT22;5195;48.562;9.192;2023-06-14T06:27:20;25.30;32.20
10300;DHT22;5195;48.562;9.192;2023-06-14T06:29:47;25.50;31.90
10300;DHT22;5195;48.562;9.192;2023-06-14T06:32:13;26.00;29.50
10300;DHT22;5195;48.562;9.192;2023-06-14T06:34:38;26.60;28.30
10300;DHT22;5195;48.562;9.192;2023-06-14T06:37:04;27.10;27.40
10300;DHT22;5195;48.562;9.192;2023-06-14T06:39:30;27.60;26.70
10300;DHT22;5195;48.562;9.192;2023-06-14T06:41:56;27.70;26.50
10300;DHT22;5195;48.562;9.192;2023-06-14T06:44:22;27.70;26.50
10300;DHT22;5195;48.562;9.192;2023-06-14T06:46:47;27.70;27.10
10300;DHT22;5195;48.562;9.192;2023-06-14T06:49:15;28.10;27.30
10300;DHT22;5195;48.562;9.192;2023-06-14T06:51:41;28.50;26.00
10300;DHT22;5195;48.562;9.192;2023-06-14T06:54:10;28.50;26.00
10300;DHT22;5195;48.562;9.192;2023-06-14T06:56:36;29.00;24.40
10300;DHT22;5195;48.562;9.192;2023-06-14T06:59:02;29.00;24.40
10300;DHT22;5195;48.562;9.192;2023-06-14T07:01:28;29.30;24.00
10300;DHT22;5195;48.562;9.192;2023-06-14T07:03:56;29.70;23.50
10300;DHT22;5195;48.562;9.192;2023-06-14T07:06:22;29.70;23.70
10300;DHT22;5195;48.562;9.192;2023-06-14T07:08:47;29.50;24.10
10300;DHT22;5195;48.562;9.192;2023-06-14T07:11:16;29.10;24.40
10300;DHT22;5195;48.562;9.192;2023-06-14T07:13:42;29.20;24.30
10300;DHT22;5195;48.562;9.192;2023-06-14T07:16:07;29.10;24.50
10300;DHT22;5195;48.562;9.192;2023-06-14T07:18:33;29.20;24.40
10300;DHT22;5195;48.562;9.192;2023-06-14T07:20:58;29.00;24.60
10300;DHT22;5195;48.562;9.192;2023-06-14T07:23:24;29.00;23.80
10300;DHT22;5195;48.562;9.192;2023-06-14T07:25:49;28.90;23.90
10300;DHT22;5195;48.562;9.192;2023-06-14T07:28:16;28.50;25.10
10300;DHT22;5195;48.562;9.192;2023-06-14T07:30:41;28.50;25.10
10300;DHT22;5195;48.562;9.192;2023-06-14T07:33:07;28.60;24.70
10300;DHT22;5195;48.562;9.192;2023-06-14T07:35:32;28.60;24.60
10300;DHT22;5195;48.562;9.192;2023-06-14T07:37:59;28.30;24.50
10300;DHT22;5195;48.562;9.192;2023-06-14T07:40:25;28.10;25.20
10300;DHT22;5195;48.562;9.192;2023-06-14T07:42:52;27.60;25.60
10300;DHT22;5195;48.562;9.192;2023-06-14T07:45:18;27.40;25.80
10300;DHT22;5195;48.562;9.192;2023-06-14T07:47:44;27.40;25.80
10300;DHT22;5195;48.562;9.192;2023-06-14T07:50:10;27.00;26.00
10300;DHT22;5195;48.562;9.192;2023-06-14T07:52:35;27.30;26.40
10300;DHT22;5195;48.562;9.192;2023-06-14T07:55:01;27.60;26.20
10300;DHT22;5195;48.562;9.192;2023-06-14T07:57:26;27.50;25.90
10300;DHT22;5195;48.562;9.192;2023-06-14T07:59:53;27.70;25.90
10300;DHT22;5195;48.562;9.192;2023-06-14T08:02:18;27.70;25.90
10300;DHT22;5195;48.562;9.192;2023-06-14T08:04:44;27.40;26.00
10300;DHT22;5195;48.562;9.192;2023-06-14T08:07:10;27.40;26.00
10300;DHT22;5195;48.562;9.192;2023-06-14T08:09:36;27.20;26.00
10300;DHT22;5195;48.562;9.192;2023-06-14T08:12:01;27.40;24.70
10300;DHT22;5195;48.562;9.192;2023-06-14T08:14:27;27.80;25.40
10300;DHT22;5195;48.562;9.192;2023-06-14T08:16:53;28.10;25.10
10300;DHT22;5195;48.562;9.192;2023-06-14T08:19:19;28.00;25.10
10300;DHT22;5195;48.562;9.192;2023-06-14T08:21:45;28.00;24.90
10300;DHT22;5195;48.562;9.192;2023-06-14T08:24:11;28.20;23.90
10300;DHT22;5195;48.562;9.192;2023-06-14T08:26:36;28.20;24.10
10300;DHT22;5195;48.562;9.192;2023-06-14T08:29:02;28.20;24.10
10300;DHT22;5195;48.562;9.192;2023-06-14T08:31:27;27.90;24.30
10300;DHT22;5195;48.562;9.192;2023-06-14T08:33:53;28.00;24.00
10300;DHT22;5195;48.562;9.192;2023-06-14T08:36:19;27.90;24.10
10300;DHT22;5195;48.562;9.192;2023-06-14T08:38:44;27.70;24.40
10300;DHT22;5195;48.562;9.192;2023-06-14T08:41:10;27.80;24.70
10300;DHT22;5195;48.562;9.192;2023-06-14T08:43:35;28.10;24.70
10300;DHT22;5195;48.562;9.192;2023-06-14T08:46:02;28.30;25.00
10300;DHT22;5195;48.562;9.192;2023-06-14T08:48:26;28.30;25.00
10300;DHT22;5195;48.562;9.192;2023-06-14T08:50:53;28.10;25.10
10300;DHT22;5195;48.562;9.192;2023-06-14T08:53:18;28.60;25.30
10300;DHT22;5195;48.562;9.192;2023-06-14T08:55:44;28.60;25.30
10300;DHT22;5195;48.562;9.192;2023-06-14T08:58:09;28.60;25.10
10300;DHT22;5195;48.562;9.192;2023-06-14T09:00:35;28.80;24.80
10300;DHT22;5195;48.562;9.192;2023-06-14T09:03:00;29.10;24.60
10300;DHT22;5195;48.562;9.192;2023-06-14T09:05:26;29.00;24.70
10300;DHT22;5195;48.562;9.192;2023-06-14T09:07:52;29.20;24.60
10300;DHT22;5195;48.562;9.192;2023-06-14T09:10:17;29.10;24.50
10300;DHT22;5195;48.562;9.192;2023-06-14T09:12:43;29.20;24.50
10300;DHT22;5195;48.562;9.192;2023-06-14T09:15:08;29.10;24.40
10300;DHT22;5195;48.562;9.192;2023-06-14T09:17:38;28.90;24.50
10300;DHT22;5195;48.562;9.192;2023-06-14T09:20:05;29.00;24.30
10300;DHT22;5195;48.562;9.192;2023-06-14T09:22:43;29.30;24.30
10300;DHT22;5195;48.562;9.192;2023-06-14T09:25:09;29.20;24.30
10300;DHT22;5195;48.562;9.192;2023-06-14T09:27:34;29.10;24.70
10300;DHT22;5195;48.562;9.192;2023-06-14T09:30:00;28.90;25.00
10300;DHT22;5195;48.562;9.192;2023-06-14T09:32:26;29.10;25.10
10300;DHT22;5195;48.562;9.192;2023-06-14T09:34:52;29.30;24.90
10300;DHT22;5195;48.562;9.192;2023-06-14T09:37:28;29.20;24.90
10300;DHT22;5195;48.562;9.192;2023-06-14T09:39:52;29.50;24.50
10300;DHT22;5195;48.562;9.192;2023-06-14T09:42:19;30.00;24.30
10300;DHT22;5195;48.562;9.192;2023-06-14T09:44:49;30.70;22.90
10300;DHT22;5195;48.562;9.192;2023-06-14T09:47:15;30.70;22.90
10300;DHT22;5195;48.562;9.192;2023-06-14T09:49:40;30.60;22.90
10300;DHT22;5195;48.562;9.192;2023-06-14T09:52:06;30.40;22.60
10300;DHT22;5195;48.562;9.192;2023-06-14T09:54:32;29.90;22.50
10300;DHT22;5195;48.562;9.192;2023-06-14T09:56:59;29.90;22.40
10300;DHT22;5195;48.562;9.192;2023-06-14T09:59:26;30.00;22.20
10300;DHT22;5195;48.562;9.192;2023-06-14T10:01:51;30.40;22.20
10300;DHT22;5195;48.562;9.192;2023-06-14T10:04:18;30.70;23.10
10300;DHT22;5195;48.562;9.192;2023-06-14T10:06:43;30.90;22.70
10300;DHT22;5195;48.562;9.192;2023-06-14T10:09:09;30.70;22.30
10300;DHT22;5195;48.562;9.192;2023-06-14T10:11:36;30.90;21.80
10300;DHT22;5195;48.562;9.192;2023-06-14T10:14:04;30.90;21.70
10300;DHT22;5195;48.562;9.192;2023-06-14T10:16:31;30.80;21.80
10300;DHT22;5195;48.562;9.192;2023-06-14T10:19:10;31.00;21.90
10300;DHT22;5195;48.562;9.192;2023-06-14T10:24:15;31.50;22.10
10300;DHT22;5195;48.562;9.192;2023-06-14T10:26:51;31.70;20.90
10300;DHT22;5195;48.562;9.192;2023-06-14T10:29:16;31.60;20.80
10300;DHT22;5195;48.562;9.192;2023-06-14T10:31:47;31.70;21.10
10300;DHT22;5195;48.562;9.192;2023-06-14T10:34:11;31.60;21.10
10300;DHT22;5195;48.562;9.192;2023-06-14T10:36:38;31.30;21.10
10300;DHT22;5195;48.562;9.192;2023-06-14T10:39:06;31.30;21.20
10300;DHT22;5195;48.562;9.192;2023-06-14T10:41:34;31.40;21.10
10300;DHT22;5195;48.562;9.192;2023-06-14T10:46:45;31.40;21.20
10300;DHT22;5195;48.562;9.192;2023-06-14T10:49:11;31.40;21.50
10300;DHT22;5195;48.562;9.192;2023-06-14T10:51:41;31.60;20.80
10300;DHT22;5195;48.562;9.192;2023-06-14T10:54:12;31.40;21.20
10300;DHT22;5195;48.562;9.192;2023-06-14T10:56:38;31.40;21.30
10300;DHT22;5195;48.562;9.192;2023-06-14T10:59:03;31.30;21.10
10300;DHT22;5195;48.562;9.192;2023-06-14T11:01:36;31.20;21.00
10300;DHT22;5195;48.562;9.192;2023-06-14T11:04:08;31.10;21.20
10300;DHT22;5195;48.562;9.192;2023-06-14T11:06:44;31.20;21.50
10300;DHT22;5195;48.562;9.192;2023-06-14T11:11:54;30.80;21.30
10300;DHT22;5195;48.562;9.192;2023-06-14T11:14:20;30.70;21.00
10300;DHT22;5195;48.562;9.192;2023-06-14T11:16:49;30.50;21.10
10300;DHT22;5195;48.562;9.192;2023-06-14T11:19:14;30.20;21.10
10300;DHT22;5195;48.562;9.192;2023-06-14T11:21:41;30.30;21.40
10300;DHT22;5195;48.562;9.192;2023-06-14T11:24:09;30.50;21.10
10300;DHT22;5195;48.562;9.192;2023-06-14T11:26:55;30.50;21.40
10300;DHT22;5195;48.562;9.192;2023-06-14T11:29:29;30.40;21.50
10300;DHT22;5195;48.562;9.192;2023-06-14T11:32:08;30.50;21.90
10300;DHT22;5195;48.562;9.192;2023-06-14T11:34:40;30.70;21.40
10300;DHT22;5195;48.562;9.192;2023-06-14T11:37:16;30.90;21.30
10300;DHT22;5195;48.562;9.192;2023-06-14T11:39:51;30.90;21.40
10300;DHT22;5195;48.562;9.192;2023-06-14T11:42:27;30.70;21.60
10300;DHT22;5195;48.562;9.192;2023-06-14T11:45:03;30.60;21.50
10300;DHT22;5195;48.562;9.192;2023-06-14T11:47:39;30.40;21.50
10300;DHT22;5195;48.562;9.192;2023-06-14T11:50:14;30.50;21.50
10300;DHT22;5195;48.562;9.192;2023-06-14T11:52:54;30.60;21.50
10300;DHT22;5195;48.562;9.192;2023-06-14T11:55:31;30.60;21.10
10300;DHT22;5195;48.562;9.192;2023-06-14T11:58:07;30.70;21.50
10300;DHT22;5195;48.562;9.192;2023-06-14T12:00:42;30.80;21.50
10300;DHT22;5195;48.562;9.192;2023-06-14T12:03:22;30.70;21.20
10300;DHT22;5195;48.562;9.192;2023-06-14T12:06:07;30.80;21.10
10300;DHT22;5195;48.562;9.192;2023-06-14T12:08:43;31.40;21.70
10300;DHT22;5195;48.562;9.192;2023-06-14T12:11:19;31.40;21.70
10300;DHT22;5195;48.562;9.192;2023-06-14T12:13:56;31.70;20.40
10300;DHT22;5195;48.562;9.192;2023-06-14T12:16:34;31.70;20.80
10300;DHT22;5195;48.562;9.192;2023-06-14T12:19:16;31.30;21.00
10300;DHT22;5195;48.562;9.192;2023-06-14T12:21:53;31.00;21.10
10300;DHT22;5195;48.562;9.192;2023-06-14T12:24:31;31.00;21.10
10300;DHT22;5195;48.562;9.192;2023-06-14T12:27:09;30.50;21.60
10300;DHT22;5195;48.562;9.192;2023-06-14T12:29:47;30.50;21.60
10300;DHT22;5195;48.562;9.192;2023-06-14T12:32:24;30.30;22.00
10300;DHT22;5195;48.562;9.192;2023-06-14T12:35:01;30.70;21.30
10300;DHT22;5195;48.562;9.192;2023-06-14T12:37:38;30.70;21.90
10300;DHT22;5195;48.562;9.192;2023-06-14T12:40:13;30.70;21.30
10300;DHT22;5195;48.562;9.192;2023-06-14T12:42:50;30.00;21.50
10300;DHT22;5195;48.562;9.192;2023-06-14T12:45:27;30.00;21.50
10300;DHT22;5195;48.562;9.192;2023-06-14T12:48:02;29.60;21.70
10300;DHT22;5195;48.562;9.192;2023-06-14T12:50:38;29.50;22.10
10300;DHT22;5195;48.562;9.192;2023-06-14T12:53:13;29.70;22.30
10300;DHT22;5195;48.562;9.192;2023-06-14T12:55:49;30.10;22.70
10300;DHT22;5195;48.562;9.192;2023-06-14T12:58:26;30.20;22.30
10300;DHT22;5195;48.562;9.192;2023-06-14T13:01:02;30.00;22.30
10300;DHT22;5195;48.562;9.192;2023-06-14T13:03:37;29.70;22.20
10300;DHT22;5195;48.562;9.192;2023-06-14T13:06:14;29.60;22.20
10300;DHT22;5195;48.562;9.192;2023-06-14T13:08:49;29.50;22.10
10300;DHT22;5195;48.562;9.192;2023-06-14T13:11:25;29.90;22.00
10300;DHT22;5195;48.562;9.192;2023-06-14T13:14:01;29.70;22.30
10300;DHT22;5195;48.562;9.192;2023-06-14T13:16:37;29.60;22.20
10300;DHT22;5195;48.562;9.192;2023-06-14T13:19:12;29.70;22.70
10300;DHT22;5195;48.562;9.192;2023-06-14T13:21:48;29.60;22.70
10300;DHT22;5195;48.562;9.192;2023-06-14T13:24:24;29.20;22.60
10300;DHT22;5195;48.562;9.192;2023-06-14T13:27:00;29.20;22.60
10300;DHT22;5195;48.562;9.192;2023-06-14T13:29:36;28.90;22.60
10300;DHT22;5195;48.562;9.192;2023-06-14T13:32:11;28.50;22.60
10300;DHT22;5195;48.562;9.192;2023-06-14T13:34:47;28.50;22.60
10300;DHT22;5195;48.562;9.192;2023-06-14T13:37:22;28.50;22.60
10300;DHT22;5195;48.562;9.192;2023-06-14T13:39:58;28.50;22.80
10300;DHT22;5195;48.562;9.192;2023-06-14T13:42:37;28.70;22.80
10300;DHT22;5195;48.562;9.192;2023-06-14T13:45:13;28.70;22.80
10300;DHT22;5195;48.562;9.192;2023-06-14T13:47:48;28.60;22.70
10300;DHT22;5195;48.562;9.192;2023-06-14T13:50:24;28.80;22.40
10300;DHT22;5195;48.562;9.192;2023-06-14T13:53:00;29.00;23.00
10300;DHT22;5195;48.562;9.192;2023-06-14T13:55:36;29.00;23.00
10300;DHT22;5195;48.562;9.192;2023-06-14T13:58:11;29.30;22.80
10300;DHT22;5195;48.562;9.192;2023-06-14T14:00:48;29.70;22.50
10300;DHT22;5195;48.562;9.192;2023-06-14T14:03:25;29.80;23.10
10300;DHT22;5195;48.562;9.192;2023-06-14T14:06:04;29.60;22.50
10300;DHT22;5195;48.562;9.192;2023-06-14T14:08:39;29.30;22.70
10300;DHT22;5195;48.562;9.192;2023-06-14T14:11:15;28.90;23.30
10300;DHT22;5195;48.562;9.192;2023-06-14T14:13:51;28.90;23.20
10300;DHT22;5195;48.562;9.192;2023-06-14T14:16:28;29.10;23.10
10300;DHT22;5195;48.562;9.192;2023-06-14T14:19:03;29.30;23.10
10300;DHT22;5195;48.562;9.192;2023-06-14T14:21:40;29.50;23.10
10300;DHT22;5195;48.562;9.192;2023-06-14T14:24:15;29.50;23.10
10300;DHT22;5195;48.562;9.192;2023-06-14T14:26:51;29.30;22.70
10300;DHT22;5195;48.562;9.192;2023-06-14T14:29:27;29.40;22.90
10300;DHT22;5195;48.562;9.192;2023-06-14T14:32:03;29.60;22.70
10300;DHT22;5195;48.562;9.192;2023-06-14T14:34:38;29.80;22.00
10300;DHT22;5195;48.562;9.192;2023-06-14T14:37:15;29.20;22.50
10300;DHT22;5195;48.562;9.192;2023-06-14T14:39:50;29.20;22.50
10300;DHT22;5195;48.562;9.192;2023-06-14T14:42:27;29.40;22.70
10300;DHT22;5195;48.562;9.192;2023-06-14T14:45:02;29.30;22.70
10300;DHT22;5195;48.562;9.192;2023-06-14T14:47:38;29.40;22.50
10300;DHT22;5195;48.562;9.192;2023-06-14T14:50:13;29.50;22.60
10300;DHT22;5195;48.562;9.192;2023-06-14T14:52:49;29.10;22.70
10300;DHT22;5195;48.562;9.192;2023-06-14T14:55:25;28.70;22.90
10300;DHT22;5195;48.562;9.192;2023-06-14T14:58:00;28.30;23.20
10300;DHT22;5195;48.562;9.192;2023-06-14T15:00:37;28.50;23.50
10300;DHT22;5195;48.562;9.192;2023-06-14T15:03:12;28.50;23.20
10300;DHT22;5195;48.562;9.192;2023-06-14T15:05:48;28.70;23.20
10300;DHT22;5195;48.562;9.192;2023-06-14T15:08:23;28.70;22.90
10300;DHT22;5195;48.562;9.192;2023-06-14T15:10:59;28.70;22.40
10300;DHT22;5195;48.562;9.192;2023-06-14T15:13:34;28.40;22.60
10300;DHT22;5195;48.562;9.192;2023-06-14T15:16:10;28.30;22.80
10300;DHT22;5195;48.562;9.192;2023-06-14T15:18:46;28.10;23.10
10300;DHT22;5195;48.562;9.192;2023-06-14T15:21:22;28.40;24.30
10300;DHT22;5195;48.562;9.192;2023-06-14T15:23:57;28.40;23.70
10300;DHT22;5195;48.562;9.192;2023-06-14T15:26:33;28.30;23.80
10300;DHT22;5195;48.562;9.192;2023-06-14T15:29:09;28.10;23.90
10300;DHT22;5195;48.562;9.192;2023-06-14T15:31:44;27.90;23.90
10300;DHT22;5195;48.562;9.192;2023-06-14T15:34:20;28.10;23.70
10300;DHT22;5195;48.562;9.192;2023-06-14T15:36:56;27.90;23.70
10300;DHT22;5195;48.562;9.192;2023-06-14T15:39:32;27.90;23.70
10300;DHT22;5195;48.562;9.192;2023-06-14T15:42:08;28.00;23.80
10300;DHT22;5195;48.562;9.192;2023-06-14T15:44:43;28.30;24.10
10300;DHT22;5195;48.562;9.192;2023-06-14T15:47:19;28.20;23.90
10300;DHT22;5195;48.562;9.192;2023-06-14T15:49:55;28.50;23.80
10300;DHT22;5195;48.562;9.192;2023-06-14T15:52:31;28.50;23.80
10300;DHT22;5195;48.562;9.192;2023-06-14T15:55:06;28.70;23.90
10300;DHT22;5195;48.562;9.192;2023-06-14T15:57:42;28.50;23.80
10300;DHT22;5195;48.562;9.192;2023-06-14T16:00:18;28.20;23.90
10300;DHT22;5195;48.562;9.192;2023-06-14T16:02:55;27.90;23.90
10300;DHT22;5195;48.562;9.192;2023-06-14T16:05:30;27.90;24.00